sensor_id;sensor_type;location;lat;lon;timestamp;pressure;altitude;pressure_sealevel;temperature;humidity
1401;BME280;46518;48.842;8.926;2023-04-15T00:01:59;96176.69;;;5.19;76.22
1401;BME280;46518;48.842;8.926;2023-04-15T00:04:27;96171.34;;;4.97;77.73
1401;BME280;46518;48.842;8.926;2023-04-15T00:06:57;96170.56;;;4.85;78.60
1401;BME280;46518;48.842;8.926;2023-04-15T00:09:26;96172.25;;;4.91;78.66
1401;BME280;46518;48.842;8.926;2023-04-15T00:11:54;96169.13;;;5.06;77.71
1401;BME280;46518;48.842;8.926;2023-04-15T00:14:23;96178.47;;;5.02;78.49
1401;BME280;46518;48.842;8.926;2023-04-15T00:16:52;96181.56;;;5.16;77.73
1401;BME280;46518;48.842;8.926;2023-04-15T00:19:23;96172.00;;;5.22;77.59
1401;BME280;46518;48.842;8.926;2023-04-15T00:21:52;96173.91;;;5.26;76.65
1401;BME280;46518;48.842;8.926;2023-04-15T00:24:20;96171.59;;;5.13;77.68
1401;BME280;46518;48.842;8.926;2023-04-15T00:26:49;96169.72;;;4.96;78.35
1401;BME280;46518;48.842;8.926;2023-04-15T00:29:17;96164.81;;;4.71;79.57
1401;BME280;46518;48.842;8.926;2023-04-15T00:31:45;96168.34;;;4.77;79.50
1401;BME280;46518;48.842;8.926;2023-04-15T00:34:14;96175.13;;;4.78;79.34
1401;BME280;46518;48.842;8.926;2023-04-15T00:36:44;96168.84;;;4.62;79.77
1401;BME280;46518;48.842;8.926;2023-04-15T00:39:12;96169.41;;;4.52;80.47
1401;BME280;46518;48.842;8.926;2023-04-15T00:41:41;96162.41;;;4.41;81.12
1401;BME280;46518;48.842;8.926;2023-04-15T00:44:11;96163.75;;;4.44;81.03
1401;BME280;46518;48.842;8.926;2023-04-15T00:46:40;96153.44;;;4.49;81.31
1401;BME280;46518;48.842;8.926;2023-04-15T00:49:10;96161.25;;;4.61;81.05
1401;BME280;46518;48.842;8.926;2023-04-15T00:51:39;96160.78;;;4.64;80.98
1401;BME280;46518;48.842;8.926;2023-04-15T00:54:10;96168.25;;;4.72;79.87
1401;BME280;46518;48.842;8.926;2023-04-15T00:56:39;96164.06;;;4.59;81.04
1401;BME280;46518;48.842;8.926;2023-04-15T00:59:08;96168.38;;;4.65;80.31
1401;BME280;46518;48.842;8.926;2023-04-15T01:01:37;96167.44;;;4.71;79.73
1401;BME280;46518;48.842;8.926;2023-04-15T01:04:05;96170.69;;;4.90;78.68
1401;BME280;46518;48.842;8.926;2023-04-15T01:06:34;96175.94;;;5.07;78.36
1401;BME280;46518;48.842;8.926;2023-04-15T01:09:02;96171.09;;;5.28;77.36
1401;BME280;46518;48.842;8.926;2023-04-15T01:11:32;96171.78;;;5.52;76.94
1401;BME280;46518;48.842;8.926;2023-04-15T01:14:01;96166.31;;;5.70;76.12
1401;BME280;46518;48.842;8.926;2023-04-15T01:16:30;96165.19;;;5.66;74.48
1401;BME280;46518;48.842;8.926;2023-04-15T01:18:58;96167.72;;;5.61;74.76
1401;BME280;46518;48.842;8.926;2023-04-15T01:21:27;96159.97;;;5.49;75.67
1401;BME280;46518;48.842;8.926;2023-04-15T01:23:56;96162.28;;;5.62;75.31
1401;BME280;46518;48.842;8.926;2023-04-15T01:26:27;96157.28;;;5.61;75.42
1401;BME280;46518;48.842;8.926;2023-04-15T01:28:56;96162.53;;;4.87;78.33
1401;BME280;46518;48.842;8.926;2023-04-15T01:31:25;96154.06;;;4.80;79.68
1401;BME280;46518;48.842;8.926;2023-04-15T01:33:53;96164.59;;;4.73;80.08
1401;BME280;46518;48.842;8.926;2023-04-15T01:36:40;96158.34;;;4.86;79.06
1401;BME280;46518;48.842;8.926;2023-04-15T01:39:08;96150.44;;;4.69;79.80
1401;BME280;46518;48.842;8.926;2023-04-15T01:41:38;96160.03;;;4.40;81.49
1401;BME280;46518;48.842;8.926;2023-04-15T01:44:09;96159.25;;;4.27;82.75
1401;BME280;46518;48.842;8.926;2023-04-15T01:46:40;96149.53;;;4.35;82.27
1401;BME280;46518;48.842;8.926;2023-04-15T01:49:09;96158.69;;;4.25;83.27
1401;BME280;46518;48.842;8.926;2023-04-15T01:51:39;96156.19;;;4.19;83.26
1401;BME280;46518;48.842;8.926;2023-04-15T01:54:09;96154.94;;;4.21;83.17
1401;BME280;46518;48.842;8.926;2023-04-15T01:56:40;96155.28;;;4.37;83.11
1401;BME280;46518;48.842;8.926;2023-04-15T01:59:10;96150.41;;;4.40;83.33
1401;BME280;46518;48.842;8.926;2023-04-15T02:01:39;96150.31;;;4.35;83.38
1401;BME280;46518;48.842;8.926;2023-04-15T02:04:09;96148.84;;;4.27;83.59
1401;BME280;46518;48.842;8.926;2023-04-15T02:06:43;96155.84;;;4.39;83.50
1401;BME280;46518;48.842;8.926;2023-04-15T02:09:14;96156.09;;;4.37;82.86
1401;BME280;46518;48.842;8.926;2023-04-15T02:11:47;96151.53;;;4.44;82.24
1401;BME280;46518;48.842;8.926;2023-04-15T02:14:16;96156.50;;;4.46;82.10
1401;BME280;46518;48.842;8.926;2023-04-15T02:16:47;96155.41;;;4.30;83.38
1401;BME280;46518;48.842;8.926;2023-04-15T02:19:16;96152.75;;;4.42;83.07
1401;BME280;46518;48.842;8.926;2023-04-15T02:21:46;96153.91;;;4.34;82.99
1401;BME280;46518;48.842;8.926;2023-04-15T02:24:18;96151.66;;;4.26;83.25
1401;BME280;46518;48.842;8.926;2023-04-15T02:26:49;96150.06;;;4.37;82.61
1401;BME280;46518;48.842;8.926;2023-04-15T02:29:19;96149.81;;;4.50;82.15
1401;BME280;46518;48.842;8.926;2023-04-15T02:31:50;96151.53;;;4.85;81.74
1401;BME280;46518;48.842;8.926;2023-04-15T02:34:20;96150.97;;;5.11;80.70
1401;BME280;46518;48.842;8.926;2023-04-15T02:36:50;96152.19;;;5.21;79.09
1401;BME280;46518;48.842;8.926;2023-04-15T02:39:23;96147.06;;;5.26;77.61
1401;BME280;46518;48.842;8.926;2023-04-15T02:41:54;96145.09;;;5.33;75.74
1401;BME280;46518;48.842;8.926;2023-04-15T02:44:26;96143.22;;;5.45;75.19
1401;BME280;46518;48.842;8.926;2023-04-15T02:46:59;96144.31;;;5.32;74.50
1401;BME280;46518;48.842;8.926;2023-04-15T02:49:28;96141.44;;;5.34;74.13
1401;BME280;46518;48.842;8.926;2023-04-15T02:51:58;96141.13;;;5.30;74.15
1401;BME280;46518;48.842;8.926;2023-04-15T02:54:27;96138.59;;;5.35;73.88
1401;BME280;46518;48.842;8.926;2023-04-15T02:56:59;96136.41;;;5.27;76.15
1401;BME280;46518;48.842;8.926;2023-04-15T02:59:28;96143.97;;;5.12;76.44
1401;BME280;46518;48.842;8.926;2023-04-15T03:01:58;96137.38;;;4.81;78.06
1401;BME280;46518;48.842;8.926;2023-04-15T03:04:28;96134.66;;;4.47;81.15
1401;BME280;46518;48.842;8.926;2023-04-15T03:06:58;96132.44;;;4.15;83.34
1401;BME280;46518;48.842;8.926;2023-04-15T03:09:28;96135.50;;;4.12;83.72
1401;BME280;46518;48.842;8.926;2023-04-15T03:12:00;96142.97;;;4.08;84.33
1401;BME280;46518;48.842;8.926;2023-04-15T03:14:30;96139.44;;;4.26;84.01
1401;BME280;46518;48.842;8.926;2023-04-15T03:16:59;96137.88;;;4.25;83.64
1401;BME280;46518;48.842;8.926;2023-04-15T03:19:29;96137.66;;;4.15;84.10
1401;BME280;46518;48.842;8.926;2023-04-15T03:21:59;96143.31;;;4.00;84.54
1401;BME280;46518;48.842;8.926;2023-04-15T03:24:29;96141.72;;;4.11;84.50
1401;BME280;46518;48.842;8.926;2023-04-15T03:27:00;96142.28;;;4.13;84.85
1401;BME280;46518;48.842;8.926;2023-04-15T03:29:30;96141.63;;;4.06;84.56
1401;BME280;46518;48.842;8.926;2023-04-15T03:31:59;96144.66;;;3.91;84.98
1401;BME280;46518;48.842;8.926;2023-04-15T03:34:33;96135.50;;;3.88;85.38
1401;BME280;46518;48.842;8.926;2023-04-15T03:37:04;96138.34;;;3.75;85.53
1401;BME280;46518;48.842;8.926;2023-04-15T03:39:33;96138.00;;;3.60;86.16
1401;BME280;46518;48.842;8.926;2023-04-15T03:42:05;96126.91;;;3.64;86.45
1401;BME280;46518;48.842;8.926;2023-04-15T03:44:34;96140.28;;;3.80;85.71
1401;BME280;46518;48.842;8.926;2023-04-15T03:47:04;96139.59;;;3.73;86.50
1401;BME280;46518;48.842;8.926;2023-04-15T03:49:34;96132.91;;;3.65;85.76
1401;BME280;46518;48.842;8.926;2023-04-15T03:52:04;96134.56;;;3.48;86.88
1401;BME280;46518;48.842;8.926;2023-04-15T03:54:33;96131.41;;;3.45;87.76
1401;BME280;46518;48.842;8.926;2023-04-15T03:57:04;96130.75;;;3.50;87.37
1401;BME280;46518;48.842;8.926;2023-04-15T03:59:34;96134.69;;;3.53;87.08
1401;BME280;46518;48.842;8.926;2023-04-15T04:02:04;96134.47;;;3.66;87.27
1401;BME280;46518;48.842;8.926;2023-04-15T04:04:33;96136.97;;;3.61;87.00
1401;BME280;46518;48.842;8.926;2023-04-15T04:07:03;96141.72;;;3.64;86.77
1401;BME280;46518;48.842;8.926;2023-04-15T04:09:32;96140.59;;;3.60;86.74
1401;BME280;46518;48.842;8.926;2023-04-15T04:12:02;96137.75;;;3.61;86.74
1401;BME280;46518;48.842;8.926;2023-04-15T04:14:33;96139.56;;;3.61;86.46
1401;BME280;46518;48.842;8.926;2023-04-15T04:17:03;96145.34;;;3.63;86.14
1401;BME280;46518;48.842;8.926;2023-04-15T04:19:32;96144.44;;;3.69;86.40
1401;BME280;46518;48.842;8.926;2023-04-15T04:22:02;96150.44;;;3.81;85.85
1401;BME280;46518;48.842;8.926;2023-04-15T04:24:31;96146.94;;;3.76;86.06
1401;BME280;46518;48.842;8.926;2023-04-15T04:27:01;96145.69;;;3.78;86.36
1401;BME280;46518;48.842;8.926;2023-04-15T04:29:32;96146.47;;;3.79;85.41
1401;BME280;46518;48.842;8.926;2023-04-15T04:32:02;96141.28;;;3.79;85.74
1401;BME280;46518;48.842;8.926;2023-04-15T04:34:32;96138.00;;;3.95;85.10
1401;BME280;46518;48.842;8.926;2023-04-15T04:37:01;96146.81;;;4.06;84.72
1401;BME280;46518;48.842;8.926;2023-04-15T04:39:31;96144.69;;;4.03;84.55
1401;BME280;46518;48.842;8.926;2023-04-15T04:42:01;96154.41;;;3.96;85.12
1401;BME280;46518;48.842;8.926;2023-04-15T04:44:30;96156.53;;;3.99;84.36
1401;BME280;46518;48.842;8.926;2023-04-15T04:47:01;96154.88;;;4.04;84.28
1401;BME280;46518;48.842;8.926;2023-04-15T04:49:31;96151.59;;;3.97;83.70
1401;BME280;46518;48.842;8.926;2023-04-15T04:52:01;96164.56;;;4.09;83.88
1401;BME280;46518;48.842;8.926;2023-04-15T04:54:31;96164.00;;;4.19;83.13
1401;BME280;46518;48.842;8.926;2023-04-15T04:57:00;96158.13;;;4.11;83.23
1401;BME280;46518;48.842;8.926;2023-04-15T04:59:30;96162.97;;;4.31;82.26
1401;BME280;46518;48.842;8.926;2023-04-15T05:02:01;96166.94;;;4.46;81.92
1401;BME280;46518;48.842;8.926;2023-04-15T05:04:31;96166.72;;;4.36;81.60
1401;BME280;46518;48.842;8.926;2023-04-15T05:07:01;96160.81;;;4.40;82.02
1401;BME280;46518;48.842;8.926;2023-04-15T05:09:31;96168.63;;;4.52;81.69
1401;BME280;46518;48.842;8.926;2023-04-15T05:12:03;96165.38;;;4.73;80.61
1401;BME280;46518;48.842;8.926;2023-04-15T05:14:33;96167.63;;;4.82;79.81
1401;BME280;46518;48.842;8.926;2023-04-15T05:17:04;96168.88;;;4.79;79.58
1401;BME280;46518;48.842;8.926;2023-04-15T05:19:33;96173.41;;;4.84;79.90
1401;BME280;46518;48.842;8.926;2023-04-15T05:22:03;96162.88;;;4.79;79.78
1401;BME280;46518;48.842;8.926;2023-04-15T05:24:33;96170.78;;;4.84;79.48
1401;BME280;46518;48.842;8.926;2023-04-15T05:27:03;96173.06;;;4.92;79.95
1401;BME280;46518;48.842;8.926;2023-04-15T05:29:33;96173.38;;;4.95;79.38
1401;BME280;46518;48.842;8.926;2023-04-15T05:32:04;96164.19;;;4.93;79.86
1401;BME280;46518;48.842;8.926;2023-04-15T05:34:34;96163.72;;;4.96;78.62
1401;BME280;46518;48.842;8.926;2023-04-15T05:37:04;96172.09;;;5.10;78.42
1401;BME280;46518;48.842;8.926;2023-04-15T05:39:34;96166.94;;;5.15;79.05
1401;BME280;46518;48.842;8.926;2023-04-15T05:42:04;96170.34;;;5.15;78.53
1401;BME280;46518;48.842;8.926;2023-04-15T05:44:34;96172.59;;;5.40;77.36
1401;BME280;46518;48.842;8.926;2023-04-15T05:47:06;96172.75;;;5.34;77.62
1401;BME280;46518;48.842;8.926;2023-04-15T05:49:36;96173.03;;;5.49;76.99
1401;BME280;46518;48.842;8.926;2023-04-15T05:52:06;96179.69;;;5.57;76.56
1401;BME280;46518;48.842;8.926;2023-04-15T05:54:36;96180.56;;;5.79;76.43
1401;BME280;46518;48.842;8.926;2023-04-15T05:57:06;96178.34;;;6.05;73.98
1401;BME280;46518;48.842;8.926;2023-04-15T05:59:36;96186.97;;;6.05;72.49
1401;BME280;46518;48.842;8.926;2023-04-15T06:02:08;96187.53;;;6.08;72.57
1401;BME280;46518;48.842;8.926;2023-04-15T06:04:38;96191.00;;;5.96;72.01
1401;BME280;46518;48.842;8.926;2023-04-15T06:07:08;96186.56;;;5.80;74.20
1401;BME280;46518;48.842;8.926;2023-04-15T06:09:38;96186.88;;;5.67;75.31
1401;BME280;46518;48.842;8.926;2023-04-15T06:12:08;96182.13;;;5.63;76.51
1401;BME280;46518;48.842;8.926;2023-04-15T06:14:39;96184.25;;;5.50;77.28
1401;BME280;46518;48.842;8.926;2023-04-15T06:17:10;96185.34;;;5.54;77.98
1401;BME280;46518;48.842;8.926;2023-04-15T06:19:42;96192.22;;;5.43;77.88
1401;BME280;46518;48.842;8.926;2023-04-15T06:22:11;96185.88;;;5.39;78.77
1401;BME280;46518;48.842;8.926;2023-04-15T06:24:41;96189.44;;;5.33;79.69
1401;BME280;46518;48.842;8.926;2023-04-15T06:27:11;96192.31;;;5.48;79.00
1401;BME280;46518;48.842;8.926;2023-04-15T06:29:41;96195.66;;;5.60;80.22
1401;BME280;46518;48.842;8.926;2023-04-15T06:32:12;96194.41;;;5.80;77.19
1401;BME280;46518;48.842;8.926;2023-04-15T06:34:41;96190.91;;;5.91;77.58
1401;BME280;46518;48.842;8.926;2023-04-15T06:37:11;96198.84;;;5.96;77.53
1401;BME280;46518;48.842;8.926;2023-04-15T06:39:43;96195.28;;;6.19;76.88
1401;BME280;46518;48.842;8.926;2023-04-15T06:42:13;96199.75;;;6.41;77.71
1401;BME280;46518;48.842;8.926;2023-04-15T06:44:42;96204.31;;;6.51;76.07
1401;BME280;46518;48.842;8.926;2023-04-15T06:47:13;96202.91;;;6.82;76.43
1401;BME280;46518;48.842;8.926;2023-04-15T06:49:43;96212.88;;;7.07;75.13
1401;BME280;46518;48.842;8.926;2023-04-15T06:52:12;96206.16;;;7.16;74.03
1401;BME280;46518;48.842;8.926;2023-04-15T06:54:43;96210.69;;;7.26;73.71
1401;BME280;46518;48.842;8.926;2023-04-15T06:57:13;96202.25;;;7.46;72.96
1401;BME280;46518;48.842;8.926;2023-04-15T06:59:43;96199.03;;;7.66;72.75
1401;BME280;46518;48.842;8.926;2023-04-15T07:02:14;96205.00;;;7.88;72.85
1401;BME280;46518;48.842;8.926;2023-04-15T07:04:44;96198.56;;;8.06;72.34
1401;BME280;46518;48.842;8.926;2023-04-15T07:07:14;96200.31;;;8.28;71.50
1401;BME280;46518;48.842;8.926;2023-04-15T07:09:44;96201.25;;;8.49;70.86
1401;BME280;46518;48.842;8.926;2023-04-15T07:12:14;96204.53;;;8.71;70.40
1401;BME280;46518;48.842;8.926;2023-04-15T07:14:44;96199.03;;;8.83;69.37
1401;BME280;46518;48.842;8.926;2023-04-15T07:17:15;96195.44;;;8.99;68.57
1401;BME280;46518;48.842;8.926;2023-04-15T07:19:45;96194.44;;;9.16;66.04
1401;BME280;46518;48.842;8.926;2023-04-15T07:22:15;96193.97;;;9.29;65.01
1401;BME280;46518;48.842;8.926;2023-04-15T07:24:45;96191.09;;;9.46;64.64
1401;BME280;46518;48.842;8.926;2023-04-15T07:27:14;96194.00;;;9.60;63.09
1401;BME280;46518;48.842;8.926;2023-04-15T07:29:45;96197.41;;;9.65;61.08
1401;BME280;46518;48.842;8.926;2023-04-15T07:32:16;96199.00;;;9.87;61.20
1401;BME280;46518;48.842;8.926;2023-04-15T07:34:45;96199.53;;;10.04;60.80
1401;BME280;46518;48.842;8.926;2023-04-15T07:37:15;96196.91;;;10.20;60.94
1401;BME280;46518;48.842;8.926;2023-04-15T07:39:46;96206.63;;;10.45;60.78
1401;BME280;46518;48.842;8.926;2023-04-15T07:42:16;96201.03;;;10.67;60.34
1401;BME280;46518;48.842;8.926;2023-04-15T07:44:45;96195.44;;;10.89;60.45
1401;BME280;46518;48.842;8.926;2023-04-15T07:47:16;96193.25;;;11.06;60.93
1401;BME280;46518;48.842;8.926;2023-04-15T07:49:46;96196.66;;;11.12;58.45
1401;BME280;46518;48.842;8.926;2023-04-15T07:52:16;96200.63;;;11.09;56.55
1401;BME280;46518;48.842;8.926;2023-04-15T07:54:46;96195.53;;;11.23;56.39
1401;BME280;46518;48.842;8.926;2023-04-15T07:57:15;96197.03;;;11.39;55.90
1401;BME280;46518;48.842;8.926;2023-04-15T07:59:45;96193.53;;;11.54;54.53
1401;BME280;46518;48.842;8.926;2023-04-15T08:02:16;96188.50;;;11.53;51.15
1401;BME280;46518;48.842;8.926;2023-04-15T08:04:47;96186.91;;;11.57;51.81
1401;BME280;46518;48.842;8.926;2023-04-15T08:07:17;96178.91;;;11.72;51.88
1401;BME280;46518;48.842;8.926;2023-04-15T08:09:46;96181.78;;;11.76;49.05
1401;BME280;46518;48.842;8.926;2023-04-15T08:12:16;96188.19;;;12.04;50.66
1401;BME280;46518;48.842;8.926;2023-04-15T08:14:46;96184.28;;;11.96;47.42
1401;BME280;46518;48.842;8.926;2023-04-15T08:17:16;96181.88;;;12.00;47.91
1401;BME280;46518;48.842;8.926;2023-04-15T08:19:46;96171.94;;;12.21;49.09
1401;BME280;46518;48.842;8.926;2023-04-15T08:22:17;96184.97;;;12.36;48.78
1401;BME280;46518;48.842;8.926;2023-04-15T08:24:49;96185.03;;;12.55;48.99
1401;BME280;46518;48.842;8.926;2023-04-15T08:27:19;96185.84;;;12.56;48.75
1401;BME280;46518;48.842;8.926;2023-04-15T08:29:48;96194.81;;;12.55;47.51
1401;BME280;46518;48.842;8.926;2023-04-15T08:32:19;96196.81;;;12.63;45.90
1401;BME280;46518;48.842;8.926;2023-04-15T08:34:49;96193.47;;;12.33;46.98
1401;BME280;46518;48.842;8.926;2023-04-15T08:37:19;96189.97;;;12.38;47.70
1401;BME280;46518;48.842;8.926;2023-04-15T08:39:50;96194.34;;;12.47;48.08
1401;BME280;46518;48.842;8.926;2023-04-15T08:42:23;96195.72;;;12.69;47.89
1401;BME280;46518;48.842;8.926;2023-04-15T08:44:55;96193.41;;;12.86;48.27
1401;BME280;46518;48.842;8.926;2023-04-15T08:47:30;96195.53;;;13.08;46.94
1401;BME280;46518;48.842;8.926;2023-04-15T08:50:01;96187.75;;;13.17;45.87
1401;BME280;46518;48.842;8.926;2023-04-15T08:52:32;96192.34;;;13.30;46.97
1401;BME280;46518;48.842;8.926;2023-04-15T08:55:02;96192.53;;;13.15;43.72
1401;BME280;46518;48.842;8.926;2023-04-15T08:57:32;96198.06;;;12.94;46.04
1401;BME280;46518;48.842;8.926;2023-04-15T09:00:02;96190.63;;;13.21;46.80
1401;BME280;46518;48.842;8.926;2023-04-15T09:02:34;96188.78;;;13.40;46.29
1401;BME280;46518;48.842;8.926;2023-04-15T09:05:06;96199.16;;;13.12;44.07
1401;BME280;46518;48.842;8.926;2023-04-15T09:07:35;96196.38;;;12.80;45.03
1401;BME280;46518;48.842;8.926;2023-04-15T09:10:06;96200.88;;;12.79;46.15
1401;BME280;46518;48.842;8.926;2023-04-15T09:12:36;96202.63;;;12.65;46.13
1401;BME280;46518;48.842;8.926;2023-04-15T09:15:08;96205.09;;;12.80;47.45
1401;BME280;46518;48.842;8.926;2023-04-15T09:17:42;96205.53;;;12.87;46.37
1401;BME280;46518;48.842;8.926;2023-04-15T09:20:14;96214.94;;;12.74;44.55
1401;BME280;46518;48.842;8.926;2023-04-15T09:22:47;96219.06;;;12.57;44.03
1401;BME280;46518;48.842;8.926;2023-04-15T09:25:27;96218.28;;;12.56;45.18
1401;BME280;46518;48.842;8.926;2023-04-15T09:28:01;96222.56;;;12.52;45.38
1401;BME280;46518;48.842;8.926;2023-04-15T09:30:30;96224.22;;;12.43;45.32
1401;BME280;46518;48.842;8.926;2023-04-15T09:33:02;96216.78;;;12.74;45.95
1401;BME280;46518;48.842;8.926;2023-04-15T09:35:35;96224.34;;;13.05;45.13
1401;BME280;46518;48.842;8.926;2023-04-15T09:38:06;96218.00;;;13.30;45.10
1401;BME280;46518;48.842;8.926;2023-04-15T09:40:38;96218.03;;;13.06;44.10
1401;BME280;46518;48.842;8.926;2023-04-15T09:43:09;96218.69;;;12.92;45.20
1401;BME280;46518;48.842;8.926;2023-04-15T09:45:46;96216.81;;;13.17;44.76
1401;BME280;46518;48.842;8.926;2023-04-15T09:48:19;96224.59;;;13.51;45.63
1401;BME280;46518;48.842;8.926;2023-04-15T09:50:49;96224.88;;;13.50;42.17
1401;BME280;46518;48.842;8.926;2023-04-15T09:53:22;96232.78;;;13.31;43.21
1401;BME280;46518;48.842;8.926;2023-04-15T09:55:52;96226.28;;;13.42;45.29
1401;BME280;46518;48.842;8.926;2023-04-15T09:58:23;96222.72;;;13.52;46.00
1401;BME280;46518;48.842;8.926;2023-04-15T10:00:55;96225.81;;;13.78;45.54
1401;BME280;46518;48.842;8.926;2023-04-15T10:03:27;96237.75;;;13.75;43.54
1401;BME280;46518;48.842;8.926;2023-04-15T10:05:59;96223.16;;;13.59;43.80
1401;BME280;46518;48.842;8.926;2023-04-15T10:08:32;96230.22;;;13.82;44.88
1401;BME280;46518;48.842;8.926;2023-04-15T10:11:02;96229.09;;;13.70;43.16
1401;BME280;46518;48.842;8.926;2023-04-15T10:13:32;96226.81;;;13.63;45.07
1401;BME280;46518;48.842;8.926;2023-04-15T10:16:05;96226.44;;;13.08;45.37
1401;BME280;46518;48.842;8.926;2023-04-15T10:18:39;96229.31;;;13.11;41.62
1401;BME280;46518;48.842;8.926;2023-04-15T10:21:09;96229.94;;;12.79;41.48
1401;BME280;46518;48.842;8.926;2023-04-15T10:23:41;96237.28;;;12.82;41.26
1401;BME280;46518;48.842;8.926;2023-04-15T10:26:11;96225.13;;;13.05;40.34
1401;BME280;46518;48.842;8.926;2023-04-15T10:28:42;96232.44;;;13.37;40.35
1401;BME280;46518;48.842;8.926;2023-04-15T10:31:12;96244.78;;;13.42;41.48
1401;BME280;46518;48.842;8.926;2023-04-15T10:33:45;96240.31;;;13.19;40.43
1401;BME280;46518;48.842;8.926;2023-04-15T10:36:16;96251.00;;;13.32;41.41
1401;BME280;46518;48.842;8.926;2023-04-15T10:38:47;96244.09;;;13.36;41.60
1401;BME280;46518;48.842;8.926;2023-04-15T10:41:18;96254.44;;;13.52;40.14
1401;BME280;46518;48.842;8.926;2023-04-15T10:43:51;96251.22;;;12.88;40.68
1401;BME280;46518;48.842;8.926;2023-04-15T10:46:22;96255.19;;;12.61;40.84
1401;BME280;46518;48.842;8.926;2023-04-15T10:48:54;96270.69;;;12.68;40.43
1401;BME280;46518;48.842;8.926;2023-04-15T10:51:29;96259.69;;;12.85;39.93
1401;BME280;46518;48.842;8.926;2023-04-15T10:54:00;96264.38;;;13.17;39.87
1401;BME280;46518;48.842;8.926;2023-04-15T10:56:30;96264.88;;;13.19;41.94
1401;BME280;46518;48.842;8.926;2023-04-15T10:59:01;96272.63;;;13.34;41.92
1401;BME280;46518;48.842;8.926;2023-04-15T11:01:52;96275.78;;;13.12;41.16
1401;BME280;46518;48.842;8.926;2023-04-15T11:04:52;96272.59;;;12.91;42.46
1401;BME280;46518;48.842;8.926;2023-04-15T11:07:33;96269.13;;;13.15;42.54
1401;BME280;46518;48.842;8.926;2023-04-15T11:13:25;96274.59;;;13.24;43.57
1401;BME280;46518;48.842;8.926;2023-04-15T11:16:01;96267.84;;;13.12;43.40
1401;BME280;46518;48.842;8.926;2023-04-15T11:18:32;96271.38;;;13.03;43.36
1401;BME280;46518;48.842;8.926;2023-04-15T11:21:05;96271.78;;;13.15;44.51
1401;BME280;46518;48.842;8.926;2023-04-15T11:23:37;96286.00;;;13.19;43.44
1401;BME280;46518;48.842;8.926;2023-04-15T11:26:08;96277.25;;;13.24;44.60
1401;BME280;46518;48.842;8.926;2023-04-15T11:28:40;96279.38;;;13.22;45.43
1401;BME280;46518;48.842;8.926;2023-04-15T11:31:11;96282.16;;;13.35;45.48
1401;BME280;46518;48.842;8.926;2023-04-15T11:33:45;96281.50;;;13.20;48.07
1401;BME280;46518;48.842;8.926;2023-04-15T11:36:16;96288.66;;;13.19;46.00
1401;BME280;46518;48.842;8.926;2023-04-15T11:38:46;96282.16;;;13.35;46.96
1401;BME280;46518;48.842;8.926;2023-04-15T11:41:19;96288.78;;;13.09;46.41
1401;BME280;46518;48.842;8.926;2023-04-15T11:43:49;96294.91;;;12.75;45.47
1401;BME280;46518;48.842;8.926;2023-04-15T11:46:20;96285.88;;;12.81;45.49
1401;BME280;46518;48.842;8.926;2023-04-15T11:48:50;96293.72;;;13.15;46.18
1401;BME280;46518;48.842;8.926;2023-04-15T11:51:23;96279.56;;;13.30;45.45
1401;BME280;46518;48.842;8.926;2023-04-15T11:53:52;96285.13;;;13.29;44.09
1401;BME280;46518;48.842;8.926;2023-04-15T11:56:23;96298.25;;;13.10;45.08
1401;BME280;46518;48.842;8.926;2023-04-15T11:58:54;96303.19;;;12.92;43.14
1401;BME280;46518;48.842;8.926;2023-04-15T12:01:30;96305.06;;;12.92;44.04
1401;BME280;46518;48.842;8.926;2023-04-15T12:03:59;96303.44;;;12.67;44.68
1401;BME280;46518;48.842;8.926;2023-04-15T12:06:34;96302.72;;;12.61;44.29
1401;BME280;46518;48.842;8.926;2023-04-15T12:09:09;96317.47;;;12.62;43.52
1401;BME280;46518;48.842;8.926;2023-04-15T12:11:43;96313.59;;;12.84;42.98
1401;BME280;46518;48.842;8.926;2023-04-15T12:14:18;96312.66;;;13.23;44.91
1401;BME280;46518;48.842;8.926;2023-04-15T12:16:48;96314.13;;;13.58;44.46
1401;BME280;46518;48.842;8.926;2023-04-15T12:19:22;96320.78;;;13.31;43.59
1401;BME280;46518;48.842;8.926;2023-04-15T12:21:57;96323.88;;;13.38;46.12
1401;BME280;46518;48.842;8.926;2023-04-15T12:24:30;96316.28;;;13.75;43.23
1401;BME280;46518;48.842;8.926;2023-04-15T12:27:01;96315.84;;;13.87;41.43
1401;BME280;46518;48.842;8.926;2023-04-15T12:29:33;96326.63;;;13.90;41.67
1401;BME280;46518;48.842;8.926;2023-04-15T12:32:07;96349.53;;;13.81;41.92
1401;BME280;46518;48.842;8.926;2023-04-15T12:34:37;96339.28;;;13.55;39.32
1401;BME280;46518;48.842;8.926;2023-04-15T12:37:10;96337.28;;;13.66;41.29
1401;BME280;46518;48.842;8.926;2023-04-15T12:39:41;96337.16;;;13.76;39.87
1401;BME280;46518;48.842;8.926;2023-04-15T12:42:11;96343.53;;;13.51;41.24
1401;BME280;46518;48.842;8.926;2023-04-15T12:44:39;96350.28;;;13.63;38.66
1401;BME280;46518;48.842;8.926;2023-04-15T12:47:10;96362.97;;;13.85;38.38
1401;BME280;46518;48.842;8.926;2023-04-15T12:49:38;96356.84;;;14.08;38.16
1401;BME280;46518;48.842;8.926;2023-04-15T12:52:09;96363.97;;;14.45;44.46
1401;BME280;46518;48.842;8.926;2023-04-15T12:54:38;96363.88;;;14.70;46.12
1401;BME280;46518;48.842;8.926;2023-04-15T12:57:07;96373.28;;;14.62;45.42
1401;BME280;46518;48.842;8.926;2023-04-15T12:59:36;96379.13;;;14.40;45.29
1401;BME280;46518;48.842;8.926;2023-04-15T13:02:05;96381.69;;;14.45;45.38
1401;BME280;46518;48.842;8.926;2023-04-15T13:04:34;96393.44;;;14.39;46.18
1401;BME280;46518;48.842;8.926;2023-04-15T13:07:02;96398.03;;;14.14;44.43
1401;BME280;46518;48.842;8.926;2023-04-15T13:09:32;96402.47;;;13.28;35.90
1401;BME280;46518;48.842;8.926;2023-04-15T13:12:01;96398.94;;;13.08;39.27
1401;BME280;46518;48.842;8.926;2023-04-15T13:14:31;96408.94;;;13.11;38.47
1401;BME280;46518;48.842;8.926;2023-04-15T13:16:59;96403.91;;;12.46;38.41
1401;BME280;46518;48.842;8.926;2023-04-15T13:19:28;96412.22;;;12.24;40.20
1401;BME280;46518;48.842;8.926;2023-04-15T13:21:56;96414.09;;;12.19;38.44
1401;BME280;46518;48.842;8.926;2023-04-15T13:24:24;96419.13;;;12.15;38.15
1401;BME280;46518;48.842;8.926;2023-04-15T13:26:54;96422.56;;;12.16;35.16
1401;BME280;46518;48.842;8.926;2023-04-15T13:29:25;96427.41;;;11.98;36.13
1401;BME280;46518;48.842;8.926;2023-04-15T13:31:53;96431.81;;;12.13;37.16
1401;BME280;46518;48.842;8.926;2023-04-15T13:34:22;96437.34;;;12.12;38.18
1401;BME280;46518;48.842;8.926;2023-04-15T13:36:50;96445.03;;;11.98;37.81
1401;BME280;46518;48.842;8.926;2023-04-15T13:39:18;96432.16;;;11.96;37.33